Time;durP1;ratioP1;P1;durP2;ratioP2;P2;SDS_P1;SDS_P2;PMS_P1;PMS_P2;Temp;Humidity;BMP_temperature;BMP_pressure;BME280_temperature;BME280_humidity;BME280_pressure;Samples;Min_cycle;Max_cycle;Signal;HPM_P1;HPM_P2
2022/04/24 00:01:25;;;;;;;;;;;21.60;36.70;;;;;;469238;252;1175;-39
2022/04/24 00:03:26;;;;;;;;;;;21.50;36.60;;;;;;469595;252;2113;-39
2022/04/24 00:05:28;;;;;;;;;;;21.50;36.60;;;;;;469428;252;1177;-39
2022/04/24 00:07:29;;;;;;;;;;;21.60;36.70;;;;;;469468;252;1059;-39
2022/04/24 00:09:31;;;;;;;;;;;21.60;36.60;;;;;;469602;252;1052;-39
2022/04/24 00:11:32;;;;;;;;;;;21.60;36.70;;;;;;469353;252;1056;-39
2022/04/24 00:13:37;;;;;;;;;;;21.60;36.60;;;;;;469594;252;1007;-39
2022/04/24 00:15:35;;;;;;;;;;;21.60;36.60;;;;;;469120;254;2292;-39
2022/04/24 00:17:37;;;;;;;;;;;21.50;36.70;;;;;;469170;252;1063;-39
2022/04/24 00:19:38;;;;;;;;;;;21.50;36.70;;;;;;469252;252;1244;-39
2022/04/24 00:21:39;;;;;;;;;;;21.50;36.70;;;;;;469210;252;1152;-39
2022/04/24 00:23:41;;;;;;;;;;;21.50;36.70;;;;;;469660;252;2117;-39
2022/04/24 00:25:42;;;;;;;;;;;21.50;36.70;;;;;;469229;252;1058;-39
2022/04/24 00:27:43;;;;;;;;;;;21.50;36.80;;;;;;469612;252;1039;-39
2022/04/24 00:29:44;;;;;;;;;;;21.50;36.80;;;;;;469681;252;1070;-39
2022/04/24 00:31:46;;;;;;;;;;;21.50;36.70;;;;;;469343;252;1190;-39
2022/04/24 00:33:47;;;;;;;;;;;21.50;36.80;;;;;;469247;252;1984;-39
2022/04/24 00:35:48;;;;;;;;;;;21.60;36.70;;;;;;469417;252;1319;-39
2022/04/24 00:37:50;;;;;;;;;;;21.60;36.70;;;;;;469278;252;1209;-39
2022/04/24 00:39:51;;;;;;;;;;;21.60;36.70;;;;;;469649;252;1031;-39
2022/04/24 00:41:52;;;;;;;;;;;21.50;36.70;;;;;;469610;252;1194;-39
2022/04/24 00:43:54;;;;;;;;;;;21.60;36.70;;;;;;469677;252;2184;-39
2022/04/24 00:45:55;;;;;;;;;;;21.50;36.60;;;;;;469644;252;1082;-39
2022/04/24 00:47:57;;;;;;;;;;;21.50;36.70;;;;;;469659;252;1041;-39
2022/04/24 00:49:58;;;;;;;;;;;21.50;36.70;;;;;;469244;252;1084;-39
2022/04/24 00:51:59;;;;;;;;;;;21.60;36.70;;;;;;469185;252;1145;-39
2022/04/24 00:54:01;;;;;;;;;;;21.60;36.70;;;;;;469574;252;1053;-39
2022/04/24 00:56:02;;;;;;;;;;;21.60;36.70;;;;;;469210;252;1081;-39
2022/04/24 00:58:03;;;;;;;;;;;21.50;36.60;;;;;;469649;252;1013;-39
2022/04/24 01:00:05;;;;;;;;;;;21.60;36.70;;;;;;469265;252;1234;-39
2022/04/24 01:02:06;;;;;;;;;;;21.60;36.60;;;;;;469161;252;1273;-39
2022/04/24 01:04:07;;;;;;;;;;;21.60;36.70;;;;;;469593;252;2113;-39
2022/04/24 01:06:09;;;;;;;;;;;21.60;36.70;;;;;;469182;252;1253;-39
2022/04/24 01:08:10;;;;;;;;;;;21.60;36.70;;;;;;469593;252;1064;-39
2022/04/24 01:10:11;;;;;;;;;;;21.60;36.70;;;;;;469626;252;1186;-39
2022/04/24 01:12:13;;;;;;;;;;;21.50;36.70;;;;;;469157;252;1080;-39
2022/04/24 01:14:16;;;;;;;;;;;21.60;36.70;;;;;;469217;252;975;-39
2022/04/24 01:16:15;;;;;;;;;;;21.60;36.70;;;;;;469661;254;1497;-39
2022/04/24 01:18:17;;;;;;;;;;;21.50;36.70;;;;;;469650;252;1057;-39
2022/04/24 01:20:18;;;;;;;;;;;21.60;36.70;;;;;;469264;252;1013;-39
2022/04/24 01:22:19;;;;;;;;;;;21.60;36.70;;;;;;469183;252;1292;-39
2022/04/24 01:24:21;;;;;;;;;;;21.60;36.60;;;;;;469330;252;2145;-39
2022/04/24 01:26:22;;;;;;;;;;;21.60;36.60;;;;;;469450;252;1242;-39
2022/04/24 01:28:23;;;;;;;;;;;21.60;36.70;;;;;;469235;252;977;-39
2022/04/24 01:30:25;;;;;;;;;;;21.60;36.70;;;;;;469221;252;1246;-39
2022/04/24 01:32:26;;;;;;;;;;;21.60;36.70;;;;;;469315;252;1330;-39
2022/04/24 01:34:27;;;;;;;;;;;21.50;36.60;;;;;;469593;252;1085;-39
2022/04/24 01:36:29;;;;;;;;;;;21.50;36.70;;;;;;469422;252;1304;-39
2022/04/24 01:38:30;;;;;;;;;;;21.60;36.80;;;;;;469222;252;1073;-39
2022/04/24 01:40:31;;;;;;;;;;;21.60;36.80;;;;;;469268;252;967;-39
2022/04/24 01:42:32;;;;;;;;;;;21.50;36.70;;;;;;469636;252;1072;-39
2022/04/24 01:44:34;;;;;;;;;;;21.50;36.80;;;;;;469680;252;2195;-39
2022/04/24 01:46:35;;;;;;;;;;;21.50;36.70;;;;;;469356;252;1059;-39
2022/04/24 01:48:36;;;;;;;;;;;21.60;36.70;;;;;;469228;252;1080;-39
2022/04/24 01:50:38;;;;;;;;;;;21.50;36.80;;;;;;469458;252;1027;-39
2022/04/24 01:52:39;;;;;;;;;;;21.60;36.80;;;;;;469142;252;1333;-39
2022/04/24 01:54:40;;;;;;;;;;;21.50;36.80;;;;;;469653;252;1051;-39
2022/04/24 01:56:42;;;;;;;;;;;21.50;36.80;;;;;;469324;252;1076;-39
2022/04/24 01:58:43;;;;;;;;;;;21.60;36.80;;;;;;469666;252;1067;-39
2022/04/24 02:00:44;;;;;;;;;;;21.60;36.80;;;;;;469462;252;1030;-39
2022/04/24 02:02:47;;;;;;;;;;;21.60;36.80;;;;;;469606;252;999;-39
2022/04/24 02:04:48;;;;;;;;;;;21.50;36.70;;;;;;469237;252;2125;-39
2022/04/24 02:06:49;;;;;;;;;;;21.60;36.70;;;;;;469432;252;1395;-39
2022/04/24 02:08:50;;;;;;;;;;;21.60;36.70;;;;;;469231;252;1109;-39
2022/04/24 02:10:52;;;;;;;;;;;21.60;36.70;;;;;;469208;252;1087;-39
2022/04/24 02:12:53;;;;;;;;;;;21.60;36.70;;;;;;469473;252;1020;-39
2022/04/24 02:14:54;;;;;;;;;;;21.60;36.80;;;;;;469381;252;1036;-39
2022/04/24 02:16:56;;;;;;;;;;;21.50;36.80;;;;;;469645;252;1093;-39
2022/04/24 02:18:57;;;;;;;;;;;21.60;36.90;;;;;;469362;252;1046;-39
2022/04/24 02:20:58;;;;;;;;;;;21.50;36.90;;;;;;469636;252;1024;-39
2022/04/24 02:22:59;;;;;;;;;;;21.50;37.00;;;;;;469248;252;1226;-39
2022/04/24 02:25:01;;;;;;;;;;;21.50;36.90;;;;;;469263;252;2132;-39
2022/04/24 02:27:02;;;;;;;;;;;21.60;36.90;;;;;;469229;252;1054;-39
2022/04/24 02:29:03;;;;;;;;;;;21.50;36.80;;;;;;469288;252;1071;-39
2022/04/24 02:31:05;;;;;;;;;;;21.60;36.80;;;;;;469303;252;1255;-39
2022/04/24 02:33:06;;;;;;;;;;;21.60;36.80;;;;;;469602;252;1082;-39
2022/04/24 02:35:07;;;;;;;;;;;21.60;36.80;;;;;;469237;252;1107;-39
2022/04/24 02:37:09;;;;;;;;;;;21.60;36.80;;;;;;469416;252;1228;-39
2022/04/24 02:39:10;;;;;;;;;;;21.50;36.80;;;;;;469626;252;1089;-39
2022/04/24 02:41:11;;;;;;;;;;;21.60;36.80;;;;;;469464;252;1060;-39
2022/04/24 02:43:13;;;;;;;;;;;21.60;36.80;;;;;;469647;252;1028;-39
2022/04/24 02:45:14;;;;;;;;;;;21.60;36.70;;;;;;469662;252;2195;-39
2022/04/24 02:47:15;;;;;;;;;;;21.60;36.80;;;;;;469610;252;1358;-39
2022/04/24 02:49:17;;;;;;;;;;;21.60;36.80;;;;;;469610;252;1258;-39
2022/04/24 02:51:18;;;;;;;;;;;21.60;36.90;;;;;;469573;252;1337;-39
2022/04/24 02:53:19;;;;;;;;;;;21.50;36.90;;;;;;469244;252;1156;-39
2022/04/24 02:55:20;;;;;;;;;;;21.60;36.90;;;;;;469671;252;1039;-39
2022/04/24 02:57:22;;;;;;;;;;;21.50;36.80;;;;;;469618;252;1305;-39
2022/04/24 02:59:25;;;;;;;;;;;21.50;36.80;;;;;;469643;252;1225;-39
2022/04/24 03:01:25;;;;;;;;;;;21.60;36.90;;;;;;469495;252;2348;-39
2022/04/24 03:03:26;;;;;;;;;;;21.50;36.90;;;;;;469395;252;1054;-39
2022/04/24 03:05:27;;;;;;;;;;;21.50;36.90;;;;;;469208;252;2211;-39
2022/04/24 03:07:29;;;;;;;;;;;21.50;36.90;;;;;;469190;252;1210;-39
2022/04/24 03:09:30;;;;;;;;;;;21.60;36.80;;;;;;469332;252;1027;-39
2022/04/24 03:11:31;;;;;;;;;;;21.60;36.80;;;;;;469614;252;1327;-39
2022/04/24 03:13:33;;;;;;;;;;;21.60;36.80;;;;;;469190;252;1058;-39
2022/04/24 03:15:34;;;;;;;;;;;21.60;36.80;;;;;;469618;252;1231;-39
2022/04/24 03:17:35;;;;;;;;;;;21.60;36.80;;;;;;469655;252;1200;-39
2022/04/24 03:19:37;;;;;;;;;;;21.60;36.80;;;;;;469320;252;1048;-39
2022/04/24 03:21:38;;;;;;;;;;;21.50;36.80;;;;;;469608;252;1258;-39
2022/04/24 03:23:39;;;;;;;;;;;21.50;36.80;;;;;;469226;252;1165;-39
2022/04/24 03:25:41;;;;;;;;;;;21.50;36.80;;;;;;469240;252;2136;-39
2022/04/24 03:27:42;;;;;;;;;;;21.50;36.90;;;;;;469233;252;1231;-39
2022/04/24 03:29:43;;;;;;;;;;;21.50;36.90;;;;;;469483;252;1058;-39
2022/04/24 03:31:45;;;;;;;;;;;21.50;36.90;;;;;;469406;252;1392;-39
2022/04/24 03:33:46;;;;;;;;;;;21.60;36.90;;;;;;469585;252;1212;-39
2022/04/24 03:35:47;;;;;;;;;;;21.60;36.90;;;;;;469483;252;1100;-39
2022/04/24 03:37:48;;;;;;;;;;;21.50;36.80;;;;;;469207;252;1372;-39
2022/04/24 03:39:50;;;;;;;;;;;21.60;36.80;;;;;;469625;252;1089;-39
2022/04/24 03:41:51;;;;;;;;;;;21.50;36.80;;;;;;469109;252;1178;-39
2022/04/24 03:43:53;;;;;;;;;;;21.50;36.90;;;;;;469527;252;1446;-39
2022/04/24 03:45:54;;;;;;;;;;;21.50;36.90;;;;;;469644;252;2124;-39
2022/04/24 03:47:55;;;;;;;;;;;21.60;36.90;;;;;;469300;252;1128;-39
2022/04/24 03:49:56;;;;;;;;;;;21.50;36.90;;;;;;469210;252;1073;-39
2022/04/24 03:51:58;;;;;;;;;;;21.60;36.90;;;;;;469293;252;1311;-39
2022/04/24 03:53:59;;;;;;;;;;;21.60;36.90;;;;;;469214;252;1269;-39
2022/04/24 03:56:00;;;;;;;;;;;21.60;36.80;;;;;;469561;252;1189;-39
2022/04/24 03:58:02;;;;;;;;;;;21.50;36.90;;;;;;469573;252;1142;-39
2022/04/24 04:00:03;;;;;;;;;;;21.60;36.90;;;;;;469478;252;1123;-39
2022/04/24 04:02:04;;;;;;;;;;;21.60;36.90;;;;;;469146;252;1387;-39
2022/04/24 04:04:06;;;;;;;;;;;21.60;36.90;;;;;;469420;252;2121;-39
2022/04/24 04:06:07;;;;;;;;;;;21.50;36.90;;;;;;469453;252;1102;-39
2022/04/24 04:08:08;;;;;;;;;;;21.60;36.90;;;;;;469455;252;1175;-39
2022/04/24 04:10:10;;;;;;;;;;;21.50;36.90;;;;;;469261;252;1033;-39
2022/04/24 04:12:11;;;;;;;;;;;21.50;36.90;;;;;;469596;252;1057;-39
2022/04/24 04:14:12;;;;;;;;;;;21.60;36.90;;;;;;469587;252;1113;-39
2022/04/24 04:16:14;;;;;;;;;;;21.60;36.90;;;;;;469210;252;1060;-39
2022/04/24 04:18:15;;;;;;;;;;;21.50;36.80;;;;;;469385;252;1041;-39
2022/04/24 04:20:16;;;;;;;;;;;21.60;36.90;;;;;;469446;252;1078;-39
2022/04/24 04:22:17;;;;;;;;;;;21.60;36.90;;;;;;469185;252;1111;-39
2022/04/24 04:24:19;;;;;;;;;;;21.60;36.90;;;;;;469286;252;2164;-39
2022/04/24 04:26:20;;;;;;;;;;;21.60;36.90;;;;;;469615;252;1162;-39
2022/04/24 04:28:21;;;;;;;;;;;21.60;36.90;;;;;;469607;252;1064;-39
2022/04/24 04:30:23;;;;;;;;;;;21.50;36.90;;;;;;469260;252;1074;-39
2022/04/24 04:32:24;;;;;;;;;;;21.60;36.90;;;;;;469161;252;1040;-39
2022/04/24 04:34:25;;;;;;;;;;;21.60;36.90;;;;;;469634;252;1029;-39
2022/04/24 04:36:27;;;;;;;;;;;21.50;36.90;;;;;;469605;252;1168;-39
2022/04/24 04:38:28;;;;;;;;;;;21.50;36.90;;;;;;469436;252;1169;-39
2022/04/24 04:40:30;;;;;;;;;;;21.50;36.90;;;;;;469439;252;1038;-39
2022/04/24 04:42:31;;;;;;;;;;;21.50;36.90;;;;;;469127;254;2687;-39
2022/04/24 04:44:32;;;;;;;;;;;21.60;36.90;;;;;;469617;252;2125;-39
2022/04/24 04:46:33;;;;;;;;;;;21.60;36.90;;;;;;469150;252;1314;-39
2022/04/24 04:48:35;;;;;;;;;;;21.50;36.90;;;;;;469618;252;1078;-39
2022/04/24 04:50:36;;;;;;;;;;;21.60;37.00;;;;;;469645;252;1223;-39
2022/04/24 04:52:37;;;;;;;;;;;21.60;36.90;;;;;;469588;252;1298;-39
2022/04/24 04:54:40;;;;;;;;;;;21.60;36.90;;;;;;469231;252;1195;-39
2022/04/24 04:56:40;;;;;;;;;;;21.60;36.90;;;;;;469416;252;1866;-39
2022/04/24 04:58:42;;;;;;;;;;;21.60;36.80;;;;;;469628;252;967;-39
2022/04/24 05:00:43;;;;;;;;;;;21.50;36.80;;;;;;469184;252;1168;-39
2022/04/24 05:02:44;;;;;;;;;;;21.60;36.90;;;;;;469190;252;1220;-39
2022/04/24 05:04:46;;;;;;;;;;;21.60;36.80;;;;;;469645;252;2211;-39
2022/04/24 05:06:47;;;;;;;;;;;21.60;36.90;;;;;;469618;252;1349;-39
2022/04/24 05:08:49;;;;;;;;;;;21.60;36.90;;;;;;469485;252;1667;-39
2022/04/24 05:10:50;;;;;;;;;;;21.60;36.90;;;;;;469601;252;1178;-39
2022/04/24 05:12:51;;;;;;;;;;;21.60;37.00;;;;;;469323;252;1180;-39
2022/04/24 05:14:53;;;;;;;;;;;21.60;36.90;;;;;;469673;252;1044;-39
2022/04/24 05:16:54;;;;;;;;;;;21.60;36.80;;;;;;469369;252;1228;-39
2022/04/24 05:18:55;;;;;;;;;;;21.60;36.90;;;;;;469633;252;1108;-39
2022/04/24 05:20:57;;;;;;;;;;;21.60;37.00;;;;;;469607;252;1187;-39
2022/04/24 05:22:58;;;;;;;;;;;21.50;37.00;;;;;;469309;252;1292;-39
2022/04/24 05:24:59;;;;;;;;;;;21.60;37.00;;;;;;469298;252;2204;-39
2022/04/24 05:27:01;;;;;;;;;;;21.60;37.00;;;;;;469325;252;1388;-39
2022/04/24 05:29:03;;;;;;;;;;;21.50;37.00;;;;;;469604;252;2098;-39
2022/04/24 05:31:05;;;;;;;;;;;21.50;37.00;;;;;;469594;252;2217;-39
2022/04/24 05:33:05;;;;;;;;;;;21.50;37.00;;;;;;469294;253;2107;-39
2022/04/24 05:35:06;;;;;;;;;;;21.60;37.00;;;;;;469163;252;1089;-39
2022/04/24 05:37:07;;;;;;;;;;;21.60;36.90;;;;;;469160;252;1088;-39
2022/04/24 05:39:09;;;;;;;;;;;21.60;36.90;;;;;;469488;252;1186;-39
2022/04/24 05:41:10;;;;;;;;;;;21.60;36.90;;;;;;469421;252;1323;-39
2022/04/24 05:43:11;;;;;;;;;;;21.60;37.00;;;;;;469585;252;1124;-39
2022/04/24 05:45:14;;;;;;;;;;;21.60;37.00;;;;;;469661;252;2207;-39
2022/04/24 05:47:14;;;;;;;;;;;21.60;37.00;;;;;;469577;252;2384;-39
2022/04/24 05:49:16;;;;;;;;;;;21.50;36.90;;;;;;469221;252;1209;-39
2022/04/24 05:51:17;;;;;;;;;;;21.50;37.00;;;;;;469287;252;1202;-39
2022/04/24 05:53:18;;;;;;;;;;;21.60;37.00;;;;;;469637;252;1489;-39
2022/04/24 05:55:19;;;;;;;;;;;21.60;37.00;;;;;;469265;252;1186;-39
2022/04/24 05:57:21;;;;;;;;;;;21.60;37.00;;;;;;469209;252;1239;-39
2022/04/24 05:59:22;;;;;;;;;;;21.60;36.90;;;;;;469670;252;1345;-39
2022/04/24 06:01:23;;;;;;;;;;;21.60;37.00;;;;;;469569;252;1125;-39
2022/04/24 06:03:25;;;;;;;;;;;21.50;37.00;;;;;;469600;252;1125;-39
2022/04/24 06:05:26;;;;;;;;;;;21.50;36.90;;;;;;469673;252;2200;-39
2022/04/24 06:07:27;;;;;;;;;;;21.60;37.00;;;;;;469589;252;1213;-39
2022/04/24 06:09:29;;;;;;;;;;;21.60;36.90;;;;;;469502;252;1295;-39
2022/04/24 06:11:30;;;;;;;;;;;21.60;36.90;;;;;;469219;252;1103;-39
2022/04/24 06:13:31;;;;;;;;;;;21.60;36.90;;;;;;469626;252;1338;-39
2022/04/24 06:15:33;;;;;;;;;;;21.60;36.90;;;;;;469663;252;1055;-39
2022/04/24 06:17:34;;;;;;;;;;;21.60;36.90;;;;;;469197;252;1268;-39
2022/04/24 06:19:35;;;;;;;;;;;21.60;37.00;;;;;;469234;252;1061;-39
2022/04/24 06:21:36;;;;;;;;;;;21.60;37.00;;;;;;469529;252;1080;-39
2022/04/24 06:23:38;;;;;;;;;;;21.50;37.00;;;;;;469232;252;1303;-39
2022/04/24 06:25:39;;;;;;;;;;;21.60;36.90;;;;;;469247;252;2196;-39
2022/04/24 06:27:41;;;;;;;;;;;21.60;37.00;;;;;;469196;252;1199;-39
2022/04/24 06:29:42;;;;;;;;;;;21.50;36.90;;;;;;469462;252;1028;-39
2022/04/24 06:31:43;;;;;;;;;;;21.60;37.00;;;;;;469106;252;1370;-39
2022/04/24 06:33:44;;;;;;;;;;;21.50;36.90;;;;;;469245;252;1015;-39
2022/04/24 06:35:46;;;;;;;;;;;21.50;37.00;;;;;;469621;252;1115;-39
2022/04/24 06:37:47;;;;;;;;;;;21.60;37.00;;;;;;469177;252;1395;-39
2022/04/24 06:39:48;;;;;;;;;;;21.50;37.00;;;;;;469531;252;1815;-39
2022/04/24 06:41:50;;;;;;;;;;;21.60;37.00;;;;;;469359;252;1144;-39
2022/04/24 06:43:51;;;;;;;;;;;21.60;37.00;;;;;;469629;252;1065;-39
2022/04/24 06:45:52;;;;;;;;;;;21.50;37.00;;;;;;469616;252;2216;-39
2022/04/24 06:47:54;;;;;;;;;;;21.50;37.00;;;;;;469215;252;1097;-39
2022/04/24 06:49:55;;;;;;;;;;;21.50;37.00;;;;;;469216;252;1018;-39
2022/04/24 06:51:57;;;;;;;;;;;21.50;37.10;;;;;;469180;252;1265;-39
2022/04/24 06:53:58;;;;;;;;;;;21.50;37.10;;;;;;469615;252;1079;-39
2022/04/24 06:55:59;;;;;;;;;;;21.50;37.10;;;;;;469235;252;1587;-39
2022/04/24 06:58:00;;;;;;;;;;;21.60;37.10;;;;;;469271;252;1195;-39
2022/04/24 07:00:03;;;;;;;;;;;21.50;37.00;;;;;;469452;252;1260;-39
2022/04/24 07:02:03;;;;;;;;;;;21.50;37.00;;;;;;469143;254;2274;-39
2022/04/24 07:04:05;;;;;;;;;;;21.60;37.00;;;;;;469632;252;1100;-39
2022/04/24 07:06:07;;;;;;;;;;;21.60;37.00;;;;;;469616;252;2188;-39
2022/04/24 07:08:07;;;;;;;;;;;21.60;37.00;;;;;;469255;254;2291;-39
2022/04/24 07:10:09;;;;;;;;;;;21.60;37.00;;;;;;469238;252;1159;-39
2022/04/24 07:12:10;;;;;;;;;;;21.50;37.00;;;;;;469305;252;1164;-39
2022/04/24 07:14:11;;;;;;;;;;;21.50;37.00;;;;;;469261;252;1008;-39
2022/04/24 07:16:12;;;;;;;;;;;21.60;37.00;;;;;;469540;252;1045;-39
2022/04/24 07:18:14;;;;;;;;;;;21.60;37.00;;;;;;469645;252;1092;-39
2022/04/24 07:20:15;;;;;;;;;;;21.60;37.00;;;;;;469650;252;1179;-39
2022/04/24 07:22:17;;;;;;;;;;;21.60;37.10;;;;;;469493;252;1214;-39
2022/04/24 07:24:18;;;;;;;;;;;21.60;37.10;;;;;;469612;252;981;-39
2022/04/24 07:26:19;;;;;;;;;;;21.50;37.10;;;;;;469141;252;2159;-39
2022/04/24 07:28:22;;;;;;;;;;;21.50;37.10;;;;;;469197;252;1382;-39
2022/04/24 07:30:22;;;;;;;;;;;21.50;37.10;;;;;;469537;253;2370;-39
2022/04/24 07:32:23;;;;;;;;;;;21.60;37.10;;;;;;469282;252;1163;-39
2022/04/24 07:34:24;;;;;;;;;;;21.60;37.10;;;;;;469502;252;1079;-39
2022/04/24 07:36:26;;;;;;;;;;;21.60;37.10;;;;;;469590;252;1319;-39
2022/04/24 07:38:27;;;;;;;;;;;21.60;37.10;;;;;;469116;252;1083;-39
2022/04/24 07:40:28;;;;;;;;;;;21.60;37.10;;;;;;469510;252;1158;-39
2022/04/24 07:42:30;;;;;;;;;;;21.60;37.00;;;;;;469159;252;1295;-39
2022/04/24 07:44:31;;;;;;;;;;;21.60;37.00;;;;;;469639;252;1048;-39
2022/04/24 07:46:34;;;;;;;;;;;21.60;37.00;;;;;;469456;252;2125;-39
2022/04/24 07:48:34;;;;;;;;;;;21.60;37.00;;;;;;469601;252;2129;-39
2022/04/24 07:50:35;;;;;;;;;;;21.60;37.10;;;;;;469653;252;1037;-39
2022/04/24 07:52:36;;;;;;;;;;;21.60;37.10;;;;;;469436;252;1227;-39
2022/04/24 07:54:38;;;;;;;;;;;21.60;37.00;;;;;;469640;252;1051;-39
2022/04/24 07:56:39;;;;;;;;;;;21.60;37.00;;;;;;469208;252;1212;-39
2022/04/24 07:58:41;;;;;;;;;;;21.60;37.00;;;;;;469274;252;992;-39
2022/04/24 08:00:42;;;;;;;;;;;21.60;37.00;;;;;;469573;252;1130;-39
2022/04/24 08:02:44;;;;;;;;;;;21.60;37.10;;;;;;469190;252;1069;-39
2022/04/24 08:04:45;;;;;;;;;;;21.50;37.10;;;;;;469565;252;978;-39
2022/04/24 08:06:46;;;;;;;;;;;21.50;37.10;;;;;;469508;252;2121;-39
2022/04/24 08:08:48;;;;;;;;;;;21.60;37.10;;;;;;469630;252;1076;-39
2022/04/24 08:10:49;;;;;;;;;;;21.50;37.10;;;;;;469526;252;1169;-39
2022/04/24 08:12:50;;;;;;;;;;;21.60;37.10;;;;;;469172;252;1286;-39
2022/04/24 08:14:52;;;;;;;;;;;21.60;37.10;;;;;;469611;252;1064;-39
2022/04/24 08:16:53;;;;;;;;;;;21.60;37.10;;;;;;469371;252;1055;-39
2022/04/24 08:18:54;;;;;;;;;;;21.50;37.10;;;;;;469227;252;1049;-39
2022/04/24 08:20:56;;;;;;;;;;;21.60;37.10;;;;;;469174;252;1419;-39
2022/04/24 08:22:57;;;;;;;;;;;21.60;37.10;;;;;;469531;252;1143;-39
2022/04/24 08:24:59;;;;;;;;;;;21.60;37.20;;;;;;469316;252;1185;-39
2022/04/24 08:27:00;;;;;;;;;;;21.60;37.10;;;;;;469135;252;2216;-39
2022/04/24 08:29:01;;;;;;;;;;;21.50;37.10;;;;;;469211;252;958;-39
2022/04/24 08:31:03;;;;;;;;;;;21.60;37.10;;;;;;469609;251;1520;-39
2022/04/24 08:33:04;;;;;;;;;;;21.50;37.10;;;;;;469496;252;1232;-39
2022/04/24 08:35:05;;;;;;;;;;;21.60;37.20;;;;;;469543;252;1073;-39
2022/04/24 08:37:06;;;;;;;;;;;21.60;37.20;;;;;;469461;252;1214;-39
2022/04/24 08:39:08;;;;;;;;;;;21.50;37.10;;;;;;469324;252;1281;-39
2022/04/24 08:41:09;;;;;;;;;;;21.60;37.10;;;;;;469502;252;1236;-39
2022/04/24 08:43:11;;;;;;;;;;;21.60;37.10;;;;;;469203;252;1213;-39
2022/04/24 08:45:12;;;;;;;;;;;21.50;37.20;;;;;;469200;252;1091;-39
2022/04/24 08:47:13;;;;;;;;;;;21.60;37.10;;;;;;469240;252;2136;-39
2022/04/24 08:49:15;;;;;;;;;;;21.60;37.10;;;;;;469601;252;1072;-39
2022/04/24 08:51:16;;;;;;;;;;;21.50;37.10;;;;;;469182;252;1423;-39
2022/04/24 08:53:17;;;;;;;;;;;21.50;37.10;;;;;;469627;252;1237;-39
2022/04/24 08:55:19;;;;;;;;;;;21.50;37.10;;;;;;469245;252;1048;-39
2022/04/24 08:57:20;;;;;;;;;;;21.50;37.10;;;;;;469320;252;1243;-39
2022/04/24 08:59:21;;;;;;;;;;;21.50;37.10;;;;;;469205;252;1043;-39
2022/04/24 09:01:22;;;;;;;;;;;21.60;37.20;;;;;;469597;252;1322;-39
2022/04/24 09:03:24;;;;;;;;;;;21.50;37.10;;;;;;469347;252;1291;-39
2022/04/24 09:05:25;;;;;;;;;;;21.60;37.20;;;;;;469406;252;1072;-39
2022/04/24 09:07:26;;;;;;;;;;;21.60;37.10;;;;;;469545;252;2140;-39
2022/04/24 09:09:28;;;;;;;;;;;21.60;37.20;;;;;;469660;252;1106;-39
2022/04/24 09:11:29;;;;;;;;;;;21.50;37.10;;;;;;469260;252;1362;-39
2022/04/24 09:13:30;;;;;;;;;;;21.50;37.10;;;;;;469286;252;1095;-39
2022/04/24 09:15:32;;;;;;;;;;;21.50;37.20;;;;;;469674;252;1217;-39
2022/04/24 09:17:33;;;;;;;;;;;21.50;37.10;;;;;;469226;252;1094;-39
2022/04/24 09:19:36;;;;;;;;;;;21.50;37.20;;;;;;469623;252;1073;-39
2022/04/24 09:21:36;;;;;;;;;;;21.50;37.20;;;;;;469531;252;2200;-39
2022/04/24 09:23:38;;;;;;;;;;;21.50;37.10;;;;;;469663;252;1048;-39
2022/04/24 09:25:39;;;;;;;;;;;21.50;37.20;;;;;;469642;252;1354;-39
2022/04/24 09:27:40;;;;;;;;;;;21.60;37.20;;;;;;469226;252;2200;-39
2022/04/24 09:29:42;;;;;;;;;;;21.50;37.10;;;;;;469651;252;1071;-39
2022/04/24 09:31:43;;;;;;;;;;;21.60;37.10;;;;;;469428;252;1392;-39
2022/04/24 09:33:44;;;;;;;;;;;21.50;37.10;;;;;;469530;252;1013;-39
2022/04/24 09:35:45;;;;;;;;;;;21.50;37.10;;;;;;469624;252;1287;-39
2022/04/24 09:37:47;;;;;;;;;;;21.50;37.20;;;;;;469614;252;1066;-39
2022/04/24 09:39:49;;;;;;;;;;;21.50;37.20;;;;;;469660;252;1037;-39
2022/04/24 09:41:50;;;;;;;;;;;21.50;37.20;;;;;;469466;252;1236;-39
2022/04/24 09:43:51;;;;;;;;;;;21.50;37.20;;;;;;469246;252;1117;-39
2022/04/24 09:45:53;;;;;;;;;;;21.60;37.30;;;;;;469566;252;1072;-39
2022/04/24 09:47:54;;;;;;;;;;;21.60;37.20;;;;;;469238;252;2124;-39
2022/04/24 09:49:56;;;;;;;;;;;21.60;37.20;;;;;;469521;252;1062;-39
2022/04/24 09:51:57;;;;;;;;;;;21.60;37.20;;;;;;469427;252;1315;-39
2022/04/24 09:53:59;;;;;;;;;;;21.60;37.10;;;;;;469671;252;1037;-39
2022/04/24 09:56:02;;;;;;;;;;;21.60;37.10;;;;;;469624;252;1101;-39
2022/04/24 09:58:02;;;;;;;;;;;21.60;37.10;;;;;;469279;252;2233;-39
2022/04/24 10:00:03;;;;;;;;;;;21.60;37.10;;;;;;469651;252;1016;-39
2022/04/24 10:02:04;;;;;;;;;;;21.60;37.20;;;;;;469600;252;1185;-39
2022/04/24 10:04:06;;;;;;;;;;;21.60;37.20;;;;;;469348;252;1054;-39
2022/04/24 10:06:07;;;;;;;;;;;21.50;37.10;;;;;;469592;252;1181;-39
2022/04/24 10:08:08;;;;;;;;;;;21.60;37.10;;;;;;469308;252;2203;-39
2022/04/24 10:10:10;;;;;;;;;;;21.60;37.20;;;;;;469591;252;1105;-39
2022/04/24 10:12:11;;;;;;;;;;;21.60;37.10;;;;;;469133;252;1167;-39
2022/04/24 10:14:12;;;;;;;;;;;21.60;37.10;;;;;;469544;252;1117;-39
2022/04/24 10:16:14;;;;;;;;;;;21.60;37.20;;;;;;469165;252;1221;-39
2022/04/24 10:18:16;;;;;;;;;;;21.60;37.20;;;;;;469642;252;1130;-39
2022/04/24 10:20:18;;;;;;;;;;;21.60;37.20;;;;;;469169;252;2410;-39
2022/04/24 10:22:17;;;;;;;;;;;21.60;37.20;;;;;;469431;254;2415;-39
2022/04/24 10:24:19;;;;;;;;;;;21.60;37.20;;;;;;469364;252;1106;-39
2022/04/24 10:26:20;;;;;;;;;;;21.60;37.20;;;;;;469526;252;2128;-39
2022/04/24 10:28:21;;;;;;;;;;;21.50;37.20;;;;;;469230;252;1151;-39
2022/04/24 10:30:23;;;;;;;;;;;21.60;37.20;;;;;;469212;252;1282;-39
2022/04/24 10:32:24;;;;;;;;;;;21.50;37.10;;;;;;469195;252;1088;-39
2022/04/24 10:34:26;;;;;;;;;;;21.50;37.30;;;;;;469653;252;1182;-39
2022/04/24 10:36:27;;;;;;;;;;;21.60;37.20;;;;;;469589;254;2534;-39
2022/04/24 10:38:28;;;;;;;;;;;21.60;37.20;;;;;;469396;252;1083;-39
2022/04/24 10:40:29;;;;;;;;;;;21.60;37.20;;;;;;469648;252;1105;-39
2022/04/24 10:42:31;;;;;;;;;;;21.60;37.20;;;;;;469164;252;1202;-39
2022/04/24 10:44:32;;;;;;;;;;;21.60;37.20;;;;;;469197;247;1313;-39
2022/04/24 10:46:33;;;;;;;;;;;21.60;37.20;;;;;;469202;252;2133;-39
2022/04/24 10:48:35;;;;;;;;;;;21.50;37.20;;;;;;469217;252;1085;-39
2022/04/24 10:50:36;;;;;;;;;;;21.50;37.30;;;;;;469325;252;1045;-39
2022/04/24 10:52:37;;;;;;;;;;;21.50;37.30;;;;;;469443;252;1189;-39
2022/04/24 10:54:39;;;;;;;;;;;21.50;37.30;;;;;;469642;252;1225;-39
2022/04/24 10:56:40;;;;;;;;;;;21.50;37.30;;;;;;469196;252;1261;-39
2022/04/24 10:58:42;;;;;;;;;;;21.50;37.20;;;;;;469304;252;1184;-39
2022/04/24 11:00:43;;;;;;;;;;;21.50;37.10;;;;;;469568;252;2480;-39
2022/04/24 11:02:44;;;;;;;;;;;21.50;37.10;;;;;;469299;252;1108;-39
2022/04/24 11:04:45;;;;;;;;;;;21.50;37.20;;;;;;469226;252;1086;-39
2022/04/24 11:06:47;;;;;;;;;;;21.50;37.20;;;;;;469106;252;2212;-39
2022/04/24 11:08:48;;;;;;;;;;;21.50;37.20;;;;;;469621;252;1119;-39
2022/04/24 11:10:49;;;;;;;;;;;21.50;37.20;;;;;;469650;252;1080;-39
2022/04/24 11:12:53;;;;;;;;;;;21.60;37.20;;;;;;469407;252;1216;-39
2022/04/24 11:14:52;;;;;;;;;;;21.50;37.10;;;;;;469484;254;1619;-39
2022/04/24 11:16:53;;;;;;;;;;;21.50;37.20;;;;;;469384;252;1248;-39
2022/04/24 11:18:56;;;;;;;;;;;21.60;37.20;;;;;;469209;252;1090;-39
2022/04/24 11:20:56;;;;;;;;;;;21.60;37.20;;;;;;469112;252;1951;-39
2022/04/24 11:22:58;;;;;;;;;;;21.50;37.20;;;;;;469415;252;989;-39
2022/04/24 11:24:59;;;;;;;;;;;21.50;37.20;;;;;;469195;252;1094;-39
2022/04/24 11:27:00;;;;;;;;;;;21.60;37.20;;;;;;469593;252;2132;-39
2022/04/24 11:29:01;;;;;;;;;;;21.50;37.20;;;;;;469347;252;1205;-39
2022/04/24 11:31:03;;;;;;;;;;;21.60;37.20;;;;;;469613;252;1698;-39
2022/04/24 11:33:05;;;;;;;;;;;21.50;37.30;;;;;;469615;252;1107;-39
2022/04/24 11:35:06;;;;;;;;;;;21.60;37.20;;;;;;469419;252;2067;-39
2022/04/24 11:37:09;;;;;;;;;;;21.50;37.20;;;;;;469571;252;1400;-39
2022/04/24 11:39:09;;;;;;;;;;;21.50;37.20;;;;;;469160;252;2262;-39
2022/04/24 11:41:10;;;;;;;;;;;21.50;37.20;;;;;;469346;252;1415;-39
2022/04/24 11:43:11;;;;;;;;;;;21.50;37.30;;;;;;469167;252;1191;-39
2022/04/24 11:52:10;;;;;;;;;;;21.60;37.20;;;;;;482894;247;1239;-39
2022/04/24 11:54:12;;;;;;;;;;;21.50;37.20;;;;;;465111;256;1076;-39
2022/04/24 11:56:13;;;;;;;;;;;21.50;37.20;;;;;;483241;246;1130;-39
2022/04/24 11:58:14;;;;;;;;;;;21.50;37.30;;;;;;464694;253;1230;-39
2022/04/24 12:00:18;;;;;;;;;;;21.50;37.30;;;;;;483336;246;1090;-39
2022/04/24 12:02:17;;;;;;;;;;;21.50;37.20;;;;;;464834;255;1362;-39
2022/04/24 12:04:18;;;;;;;;;;;21.60;37.20;;;;;;483337;246;1218;-39